createdAt,value
2018-07-14T00:00:36.770Z,0
2018-07-14T00:01:38.078Z,0
2018-07-14T00:02:39.401Z,0
2018-07-14T00:03:40.712Z,0
2018-07-14T00:04:42.038Z,0
2018-07-14T00:05:43.368Z,0
2018-07-14T00:06:44.790Z,0
2018-07-14T00:07:46.194Z,0
2018-07-14T00:08:47.540Z,0
2018-07-14T00:09:48.910Z,0
2018-07-14T00:10:50.317Z,0
2018-07-14T00:11:51.632Z,0
2018-07-14T00:12:52.957Z,0
2018-07-14T00:13:54.270Z,0
2018-07-14T00:14:55.584Z,0
2018-07-14T00:15:56.900Z,0
2018-07-14T00:16:58.213Z,0
2018-07-14T00:17:59.524Z,0
2018-07-14T00:19:00.845Z,0
2018-07-14T00:20:02.165Z,0
2018-07-14T00:21:03.477Z,0
2018-07-14T00:22:04.789Z,0
2018-07-14T00:23:06.104Z,0
2018-07-14T00:24:07.409Z,0
2018-07-14T00:25:08.727Z,0
2018-07-14T00:26:10.040Z,0
2018-07-14T00:27:11.353Z,0
2018-07-14T00:28:12.673Z,0
2018-07-14T00:29:14.013Z,0
2018-07-14T00:30:15.363Z,0
2018-07-14T00:31:16.694Z,0
2018-07-14T00:32:18.049Z,0
2018-07-14T00:33:19.410Z,0
2018-07-14T00:34:20.781Z,0
2018-07-14T00:35:22.108Z,0
2018-07-14T00:36:23.415Z,0
2018-07-14T00:37:24.734Z,0
2018-07-14T00:38:26.039Z,0
2018-07-14T00:39:27.358Z,0
2018-07-14T00:40:28.679Z,0
2018-07-14T00:41:29.989Z,0
2018-07-14T00:42:31.308Z,0
2018-07-14T00:43:32.615Z,0
2018-07-14T00:44:33.924Z,0
2018-07-14T00:45:35.243Z,0
2018-07-14T00:46:36.537Z,0
2018-07-14T00:47:37.849Z,0
2018-07-14T00:48:39.163Z,0
2018-07-14T00:49:40.478Z,0
2018-07-14T00:50:41.797Z,0
2018-07-14T00:51:43.095Z,0
2018-07-14T00:52:44.463Z,0
2018-07-14T00:53:45.763Z,0
2018-07-14T00:54:47.090Z,0
2018-07-14T00:55:48.427Z,0
2018-07-14T00:56:49.735Z,0
2018-07-14T00:57:51.069Z,0
2018-07-14T00:58:52.404Z,0
2018-07-14T00:59:53.717Z,0
2018-07-14T01:00:55.031Z,0
2018-07-14T01:01:56.364Z,0
2018-07-14T01:02:57.680Z,0
2018-07-14T01:03:58.989Z,0
2018-07-14T01:05:00.300Z,0
2018-07-14T01:06:01.616Z,0
2018-07-14T01:07:02.919Z,0
2018-07-14T01:08:04.230Z,0
2018-07-14T01:09:05.544Z,0
2018-07-14T01:10:06.869Z,0
2018-07-14T01:11:08.179Z,0
2018-07-14T01:12:09.490Z,0
2018-07-14T01:13:10.808Z,0
2018-07-14T01:14:12.114Z,0
2018-07-14T01:15:13.461Z,0
2018-07-14T01:16:14.826Z,0
2018-07-14T01:17:16.145Z,0
2018-07-14T01:18:17.471Z,0
2018-07-14T01:19:18.785Z,0
2018-07-14T01:20:20.113Z,0
2018-07-14T01:21:21.429Z,0
2018-07-14T01:22:22.747Z,0
2018-07-14T01:23:24.065Z,0
2018-07-14T01:24:25.376Z,0
2018-07-14T01:25:26.697Z,0
2018-07-14T01:26:28.005Z,0
2018-07-14T01:27:29.312Z,0
2018-07-14T01:28:30.619Z,0
2018-07-14T01:29:31.929Z,0
2018-07-14T01:30:33.241Z,0
2018-07-14T01:31:34.556Z,0
2018-07-14T01:32:35.870Z,0
2018-07-14T01:33:37.185Z,0
2018-07-14T01:34:38.501Z,0
2018-07-14T01:35:39.831Z,0
2018-07-14T01:36:41.140Z,0
2018-07-14T01:37:42.451Z,0
2018-07-14T01:38:43.778Z,0
2018-07-14T01:39:45.106Z,0
2018-07-14T01:40:46.457Z,0
2018-07-14T01:41:47.787Z,0
2018-07-14T01:42:49.115Z,0
2018-07-14T01:43:50.432Z,0
2018-07-14T01:44:51.749Z,0
2018-07-14T01:45:53.071Z,0
2018-07-14T01:46:54.386Z,0
2018-07-14T01:47:55.704Z,0
2018-07-14T01:48:57.011Z,0
2018-07-14T01:49:58.319Z,0
2018-07-14T01:50:59.635Z,0
2018-07-14T01:52:00.951Z,0
2018-07-14T01:53:02.261Z,0
2018-07-14T01:54:03.565Z,0
2018-07-14T01:55:04.879Z,0
2018-07-14T01:56:06.194Z,0
2018-07-14T01:57:07.509Z,0
2018-07-14T01:58:08.815Z,0
2018-07-14T01:59:10.130Z,0
2018-07-14T02:00:11.454Z,0
2018-07-14T02:01:12.761Z,0
2018-07-14T02:02:14.130Z,0
2018-07-14T02:03:15.480Z,0
2018-07-14T02:04:16.816Z,0
2018-07-14T02:05:18.164Z,0
2018-07-14T02:06:19.622Z,0
2018-07-14T02:07:20.954Z,0
2018-07-14T02:08:22.251Z,0
2018-07-14T02:09:23.566Z,0
2018-07-14T02:10:24.880Z,0
2018-07-14T02:11:26.197Z,0
2018-07-14T02:12:27.511Z,0
2018-07-14T02:13:28.821Z,0
2018-07-14T02:14:30.134Z,0
2018-07-14T02:15:31.440Z,0
2018-07-14T02:16:32.749Z,0
2018-07-14T02:17:34.060Z,0
2018-07-14T02:18:35.371Z,0
2018-07-14T02:19:36.695Z,0
2018-07-14T02:20:38.005Z,0
2018-07-14T02:21:39.314Z,0
2018-07-14T02:22:40.620Z,0
2018-07-14T02:23:41.940Z,0
2018-07-14T02:24:43.977Z,0
2018-07-14T02:25:45.301Z,0
2018-07-14T02:26:46.636Z,0
2018-07-14T02:27:47.986Z,0
2018-07-14T02:28:49.310Z,0
2018-07-14T02:29:50.660Z,0
2018-07-14T02:30:51.971Z,0
2018-07-14T02:31:53.271Z,0
2018-07-14T02:32:54.596Z,0
2018-07-14T02:33:55.916Z,0
2018-07-14T02:34:57.226Z,0
2018-07-14T02:35:58.539Z,0
2018-07-14T02:36:59.848Z,0
2018-07-14T02:38:01.166Z,0
2018-07-14T02:39:02.486Z,0
2018-07-14T02:40:03.785Z,0
2018-07-14T02:41:05.103Z,0
2018-07-14T02:42:06.418Z,0
2018-07-14T02:43:07.722Z,0
2018-07-14T02:44:09.027Z,0
2018-07-14T02:45:10.341Z,0
2018-07-14T02:46:11.652Z,0
2018-07-14T02:47:12.971Z,0
2018-07-14T02:48:14.345Z,0
2018-07-14T02:49:15.676Z,0
2018-07-14T02:50:16.972Z,0
2018-07-14T02:51:18.321Z,0
2018-07-14T02:52:19.665Z,4
2018-07-14T02:53:20.991Z,4
2018-07-14T02:54:22.295Z,4
2018-07-14T02:55:23.615Z,4
2018-07-14T02:56:24.933Z,4
2018-07-14T02:57:26.245Z,4
2018-07-14T02:58:27.561Z,8
2018-07-14T02:59:28.866Z,4
2018-07-14T03:00:30.182Z,8
2018-07-14T03:01:31.488Z,8
2018-07-14T03:02:32.801Z,12
2018-07-14T03:03:34.123Z,12
2018-07-14T03:04:35.441Z,16
2018-07-14T03:05:36.751Z,16
2018-07-14T03:06:38.051Z,20
2018-07-14T03:07:39.372Z,20
2018-07-14T03:08:40.684Z,24
2018-07-14T03:09:41.996Z,28
2018-07-14T03:10:43.428Z,36
2018-07-14T03:11:44.749Z,36
2018-07-14T03:12:46.124Z,44
2018-07-14T03:13:47.424Z,52
2018-07-14T03:14:48.751Z,56
2018-07-14T03:15:50.069Z,68
2018-07-14T03:16:51.377Z,76
2018-07-14T03:17:52.691Z,84
2018-07-14T03:18:53.996Z,96
2018-07-14T03:19:55.315Z,108
2018-07-14T03:20:56.622Z,124
2018-07-14T03:21:57.931Z,140
2018-07-14T03:22:59.251Z,152
2018-07-14T03:24:00.558Z,172
2018-07-14T03:25:01.876Z,188
2018-07-14T03:26:03.192Z,212
2018-07-14T03:27:04.503Z,232
2018-07-14T03:28:05.822Z,256
2018-07-14T03:29:07.176Z,284
2018-07-14T03:30:08.447Z,308
2018-07-14T03:31:09.757Z,340
2018-07-14T03:32:11.032Z,368
2018-07-14T03:33:12.381Z,400
2018-07-14T03:34:13.707Z,436
2018-07-14T03:35:15.032Z,468
2018-07-14T03:36:16.366Z,504
2018-07-14T03:37:17.728Z,540
2018-07-14T03:38:19.042Z,580
2018-07-14T03:39:20.347Z,624
2018-07-14T03:40:21.661Z,664
2018-07-14T03:41:22.983Z,708
2018-07-14T03:42:24.293Z,756
2018-07-14T03:43:25.617Z,804
2018-07-14T03:44:26.921Z,852
2018-07-14T03:45:28.248Z,900
2018-07-14T03:46:29.562Z,952
2018-07-14T03:47:30.882Z,1004
2018-07-14T03:48:32.199Z,1060
2018-07-14T03:49:33.509Z,1116
2018-07-14T03:50:34.823Z,1172
2018-07-14T03:51:36.308Z,1228
2018-07-14T03:52:37.613Z,1288
2018-07-14T03:53:38.936Z,1344
2018-07-14T03:54:40.242Z,1408
2018-07-14T03:55:41.566Z,1468
2018-07-14T03:56:42.880Z,1532
2018-07-14T03:57:44.203Z,1592
2018-07-14T03:58:45.568Z,1656
2018-07-14T03:59:46.884Z,1728
2018-07-14T04:00:48.207Z,1800
2018-07-14T04:01:49.549Z,1876
2018-07-14T04:02:50.868Z,1952
2018-07-14T04:03:52.182Z,2032
2018-07-14T04:04:53.489Z,2116
2018-07-14T04:05:54.816Z,2204
2018-07-14T04:06:56.118Z,2288
2018-07-14T04:07:57.433Z,2380
2018-07-14T04:08:58.753Z,2472
2018-07-14T04:10:00.061Z,2564
2018-07-14T04:11:01.373Z,2664
2018-07-14T04:12:02.688Z,2764
2018-07-14T04:13:04.013Z,2868
2018-07-14T04:14:05.328Z,2972
2018-07-14T04:15:06.632Z,3072
2018-07-14T04:16:07.958Z,3152
2018-07-14T04:17:09.282Z,3192
2018-07-14T04:18:10.598Z,3228
2018-07-14T04:19:11.919Z,3268
2018-07-14T04:20:13.272Z,3324
2018-07-14T04:21:14.607Z,3412
2018-07-14T04:22:15.928Z,3524
2018-07-14T04:23:17.250Z,3652
2018-07-14T04:24:18.593Z,3788
2018-07-14T04:25:19.932Z,3916
2018-07-14T04:26:21.287Z,4064
2018-07-14T04:27:22.603Z,4252
2018-07-14T04:28:23.917Z,4448
2018-07-14T04:29:25.233Z,4608
2018-07-14T04:30:26.561Z,4736
2018-07-14T04:31:27.874Z,4888
2018-07-14T04:32:29.187Z,5052
2018-07-14T04:33:30.515Z,5184
2018-07-14T04:34:31.834Z,5272
2018-07-14T04:35:33.148Z,5344
2018-07-14T04:36:34.458Z,5388
2018-07-14T04:37:35.779Z,5412
2018-07-14T04:38:37.100Z,5428
2018-07-14T04:39:38.418Z,5456
2018-07-14T04:40:39.727Z,5520
2018-07-14T04:41:41.039Z,5616
2018-07-14T04:42:42.362Z,5712
2018-07-14T04:43:43.702Z,5808
2018-07-14T04:44:45.074Z,5884
2018-07-14T04:45:46.419Z,5948
2018-07-14T04:46:47.749Z,6012
2018-07-14T04:47:49.099Z,6064
2018-07-14T04:48:50.417Z,6120
2018-07-14T04:49:51.734Z,6176
2018-07-14T04:50:53.055Z,6212
2018-07-14T04:51:54.382Z,6244
2018-07-14T04:52:55.704Z,6252
2018-07-14T04:53:57.021Z,6252
2018-07-14T04:54:58.339Z,6268
2018-07-14T04:55:59.650Z,6332
2018-07-14T04:57:00.968Z,6444
2018-07-14T04:58:02.299Z,6608
2018-07-14T04:59:03.618Z,6772
2018-07-14T05:00:04.930Z,6924
2018-07-14T05:01:06.243Z,7056
2018-07-14T05:02:07.559Z,7184
2018-07-14T05:03:08.875Z,7288
2018-07-14T05:04:10.199Z,7428
2018-07-14T05:05:11.520Z,7596
2018-07-14T05:06:12.851Z,7800
2018-07-14T05:07:14.172Z,8016
2018-07-14T05:08:15.494Z,8212
2018-07-14T05:09:16.885Z,8396
2018-07-14T05:10:18.210Z,8596
2018-07-14T05:11:19.534Z,8796
2018-07-14T05:12:20.889Z,8996
2018-07-14T05:13:22.218Z,9152
2018-07-14T05:14:23.529Z,9256
2018-07-14T05:15:24.843Z,9292
2018-07-14T05:16:26.161Z,9288
2018-07-14T05:17:27.478Z,9276
2018-07-14T05:18:28.829Z,9228
2018-07-14T05:19:30.152Z,9144
2018-07-14T05:20:31.478Z,9032
2018-07-14T05:21:32.790Z,8948
2018-07-14T05:22:34.103Z,8868
2018-07-14T05:23:35.423Z,8760
2018-07-14T05:24:36.748Z,8660
2018-07-14T05:25:38.199Z,8620
2018-07-14T05:26:39.529Z,8640
2018-07-14T05:27:40.843Z,8688
2018-07-14T05:28:42.263Z,8768
2018-07-14T05:29:43.438Z,8856
2018-07-14T05:30:44.783Z,8928
2018-07-14T05:31:46.137Z,9000
2018-07-14T05:32:47.483Z,9044
2018-07-14T05:33:49.104Z,9092
2018-07-14T05:34:50.503Z,9156
2018-07-14T05:35:51.874Z,9288
2018-07-14T05:36:53.193Z,9512
2018-07-14T05:37:54.509Z,9800
2018-07-14T05:38:55.822Z,10152
2018-07-14T05:39:57.143Z,10528
2018-07-14T05:40:58.474Z,10884
2018-07-14T05:41:59.797Z,11216
2018-07-14T05:43:01.108Z,11508
2018-07-14T05:44:02.468Z,11792
2018-07-14T05:45:03.748Z,12068
2018-07-14T05:46:05.077Z,12528
2018-07-14T05:47:06.389Z,13828
2018-07-14T05:48:07.722Z,14232
2018-07-14T05:49:09.052Z,14312
2018-07-14T05:50:10.367Z,14008
2018-07-14T05:51:11.710Z,13420
2018-07-14T05:52:13.037Z,13452
2018-07-14T05:53:14.383Z,13488
2018-07-14T05:54:15.715Z,13672
2018-07-14T05:55:17.083Z,15488
2018-07-14T05:56:18.413Z,15636
2018-07-14T05:57:19.737Z,15884
2018-07-14T05:58:21.058Z,16372
2018-07-14T05:59:22.379Z,16348
2018-07-14T06:00:23.700Z,16872
2018-07-14T06:01:25.049Z,17232
2018-07-14T06:02:26.363Z,17424
2018-07-14T06:03:27.682Z,17784
2018-07-14T06:04:29.003Z,17844
2018-07-14T06:05:30.338Z,18168
2018-07-14T06:06:31.659Z,18488
2018-07-14T06:07:32.982Z,18776
2018-07-14T06:08:34.299Z,19232
2018-07-14T06:09:35.633Z,19520
2018-07-14T06:10:36.953Z,19712
2018-07-14T06:11:38.277Z,19904
2018-07-14T06:12:39.610Z,20000
2018-07-14T06:13:40.945Z,20256
2018-07-14T06:14:42.270Z,20512
2018-07-14T06:15:44.433Z,20736
2018-07-14T06:16:45.781Z,21056
2018-07-14T06:17:47.826Z,21440
2018-07-14T06:18:49.222Z,22080
2018-07-14T06:19:50.545Z,22624
2018-07-14T06:20:51.869Z,19392
2018-07-14T06:21:53.203Z,23904
2018-07-14T06:22:54.547Z,21024
2018-07-14T06:23:55.869Z,27456
2018-07-14T06:24:57.200Z,21216
2018-07-14T06:25:58.523Z,21408
2018-07-14T06:26:59.843Z,19776
2018-07-14T06:28:01.166Z,19392
2018-07-14T06:29:02.517Z,18924
2018-07-14T06:30:03.849Z,19104
2018-07-14T06:31:05.174Z,19136
2018-07-14T06:32:06.535Z,18580
2018-07-14T06:33:07.788Z,18816
2018-07-14T06:34:09.115Z,21856
2018-07-14T06:35:10.443Z,19616
2018-07-14T06:36:11.779Z,18100
2018-07-14T06:37:13.105Z,18128
2018-07-14T06:38:14.495Z,18456
2018-07-14T06:39:15.932Z,19104
2018-07-14T06:40:17.278Z,19776
2018-07-14T06:41:18.613Z,20192
2018-07-14T06:42:20.018Z,20960
2018-07-14T06:43:21.338Z,30144
2018-07-14T06:44:22.669Z,20992
2018-07-14T06:45:23.990Z,20928
2018-07-14T06:46:25.325Z,21216
2018-07-14T06:47:26.655Z,21664
2018-07-14T06:48:27.986Z,21856
2018-07-14T06:49:29.318Z,22368
2018-07-14T06:50:30.654Z,23104
2018-07-14T06:51:32.016Z,23776
2018-07-14T06:52:33.295Z,26144
2018-07-14T06:53:34.634Z,43808
2018-07-14T06:54:35.965Z,46304
2018-07-14T06:55:37.289Z,36096
2018-07-14T06:56:38.621Z,49088
2018-07-14T06:57:39.944Z,28768
2018-07-14T06:58:41.264Z,37632
2018-07-14T06:59:42.594Z,26560
2018-07-14T07:00:43.939Z,40640
2018-07-14T07:01:45.304Z,39072
2018-07-14T07:02:46.665Z,28544
2018-07-14T07:03:48.037Z,25600
2018-07-14T07:04:49.405Z,40160
2018-07-14T07:05:50.725Z,29920
2018-07-14T07:06:52.053Z,26304
2018-07-14T07:07:53.733Z,28192
2018-07-14T07:08:55.055Z,52544
2018-07-14T07:09:56.400Z,54368
2018-07-14T07:10:57.728Z,43712
2018-07-14T07:11:59.048Z,50752
2018-07-14T07:13:00.371Z,31744
2018-07-14T07:14:01.706Z,35328
2018-07-14T07:15:03.044Z,42048
2018-07-14T07:16:04.369Z,55648
2018-07-14T07:17:05.695Z,33824
2018-07-14T07:18:07.031Z,33024
2018-07-14T07:19:08.378Z,39072
2018-07-14T07:20:09.720Z,57408
2018-07-14T07:21:11.049Z,37696
2018-07-14T07:22:12.376Z,34048
2018-07-14T07:23:13.787Z,31104
2018-07-14T07:24:15.230Z,33696
2018-07-14T07:25:18.400Z,30912
2018-07-14T07:26:19.885Z,47936
2018-07-14T07:27:21.301Z,36160
2018-07-14T07:28:22.664Z,53280
2018-07-14T07:29:23.989Z,34880
2018-07-14T07:30:25.330Z,39040
2018-07-14T07:31:26.656Z,40512
2018-07-14T07:32:27.989Z,57184
2018-07-14T07:33:29.321Z,32960
2018-07-14T07:34:30.678Z,32288
2018-07-14T07:35:31.985Z,33312
2018-07-14T07:36:33.314Z,33632
2018-07-14T07:37:34.646Z,60160
2018-07-14T07:38:35.990Z,70688
2018-07-14T07:39:37.327Z,35168
2018-07-14T07:40:38.653Z,43264
2018-07-14T07:41:39.979Z,55584
2018-07-14T07:42:41.319Z,42368
2018-07-14T07:43:42.644Z,43840
2018-07-14T07:44:44.014Z,51104
2018-07-14T07:45:45.554Z,35968
2018-07-14T07:46:46.942Z,34944
2018-07-14T07:47:48.416Z,36224
2018-07-14T07:48:49.901Z,44224
2018-07-14T07:49:51.235Z,53664
2018-07-14T07:50:52.576Z,45440
2018-07-14T07:51:53.915Z,36544
2018-07-14T07:52:55.254Z,44672
2018-07-14T07:53:56.586Z,48064
2018-07-14T07:54:57.920Z,41440
2018-07-14T07:55:59.256Z,37536
2018-07-14T07:57:00.574Z,35456
2018-07-14T07:58:01.925Z,36480
2018-07-14T07:59:03.307Z,34208
2018-07-14T08:00:04.595Z,34720
2018-07-14T08:01:05.923Z,37408
2018-07-14T08:02:07.254Z,36416
2018-07-14T08:03:08.580Z,36512
2018-07-14T08:04:09.908Z,41824
2018-07-14T08:05:11.244Z,36768
2018-07-14T08:06:12.577Z,36416
2018-07-14T08:07:13.935Z,36480
2018-07-14T08:08:15.303Z,36160
2018-07-14T08:09:16.669Z,35072
2018-07-14T08:10:18.024Z,33408
2018-07-14T08:11:19.360Z,32288
2018-07-14T08:12:20.729Z,31328
2018-07-14T08:13:22.054Z,30464
2018-07-14T08:14:23.374Z,29984
2018-07-14T08:15:24.722Z,29888
2018-07-14T08:16:27.420Z,32928
2018-07-14T08:17:28.796Z,29184
2018-07-14T08:18:30.119Z,29024
2018-07-14T08:19:31.534Z,34528
2018-07-14T08:20:32.985Z,30080
2018-07-14T08:21:34.403Z,30464
2018-07-14T08:22:35.732Z,31360
2018-07-14T08:23:37.031Z,32320
2018-07-14T08:24:38.395Z,33728
2018-07-14T08:25:39.724Z,45600
2018-07-14T08:26:41.054Z,52192
2018-07-14T08:27:42.379Z,54688
2018-07-14T08:28:43.782Z,55360
2018-07-14T08:29:45.168Z,38624
2018-07-14T08:30:46.821Z,33280
2018-07-14T08:31:48.239Z,52224
2018-07-14T08:32:49.569Z,54144
2018-07-14T08:33:50.901Z,74624
2018-07-14T08:34:52.241Z,103680
2018-07-14T08:35:53.577Z,111168
2018-07-14T08:36:54.907Z,104416
2018-07-14T08:37:56.287Z,101120
2018-07-14T08:38:57.569Z,97280
2018-07-14T08:39:58.906Z,96608
2018-07-14T08:41:00.230Z,98688
2018-07-14T08:42:01.586Z,98464
2018-07-14T08:43:02.920Z,100576
2018-07-14T08:44:04.260Z,100320
2018-07-14T08:45:05.591Z,98848
2018-07-14T08:46:06.930Z,97152
2018-07-14T08:47:08.261Z,96928
2018-07-14T08:48:09.600Z,99456
2018-07-14T08:49:10.943Z,100000
2018-07-14T08:50:12.270Z,97664
2018-07-14T08:51:13.733Z,97248
2018-07-14T08:52:15.028Z,99392
2018-07-14T08:53:16.541Z,102080
2018-07-14T08:54:17.910Z,102880
2018-07-14T08:55:19.309Z,102528
2018-07-14T08:56:20.686Z,102720
2018-07-14T08:57:22.036Z,103104
2018-07-14T08:58:23.379Z,102976
2018-07-14T08:59:24.721Z,102048
2018-07-14T09:00:26.065Z,102816
2018-07-14T09:01:27.397Z,103616
2018-07-14T09:02:28.740Z,102272
2018-07-14T09:03:31.194Z,102624
2018-07-14T09:04:32.367Z,101344
2018-07-14T09:05:33.950Z,100256
2018-07-14T09:06:35.257Z,102528
2018-07-14T09:07:36.609Z,104448
2018-07-14T09:08:37.941Z,103424
2018-07-14T09:09:39.288Z,101152
2018-07-14T09:10:40.614Z,99104
2018-07-14T09:11:41.965Z,97600
2018-07-14T09:12:43.405Z,98752
2018-07-14T09:13:44.842Z,99520
2018-07-14T09:14:46.574Z,99488
2018-07-14T09:15:47.957Z,99840
2018-07-14T09:16:49.361Z,100256
2018-07-14T09:17:50.736Z,98432
2018-07-14T09:18:52.086Z,98336
2018-07-14T09:19:53.431Z,97952
2018-07-14T09:20:54.770Z,98464
2018-07-14T09:21:56.112Z,99328
2018-07-14T09:22:57.450Z,99808
2018-07-14T09:23:58.806Z,99392
2018-07-14T09:25:00.146Z,97920
2018-07-14T09:26:01.493Z,96256
2018-07-14T09:27:02.861Z,94272
2018-07-14T09:28:04.203Z,94752
2018-07-14T09:29:05.547Z,95584
2018-07-14T09:30:06.887Z,96416
2018-07-14T09:31:08.233Z,95648
2018-07-14T09:32:09.582Z,94720
2018-07-14T09:33:10.917Z,93888
2018-07-14T09:34:12.293Z,95264
2018-07-14T09:35:13.646Z,97088
2018-07-14T09:36:15.012Z,97280
2018-07-14T09:37:16.382Z,96480
2018-07-14T09:38:17.724Z,95520
2018-07-14T09:39:19.072Z,94240
2018-07-14T09:40:20.408Z,93728
2018-07-14T09:41:21.762Z,93568
2018-07-14T09:42:23.096Z,94432
2018-07-14T09:43:24.444Z,95392
2018-07-14T09:44:25.781Z,96384
2018-07-14T09:45:27.132Z,97152
2018-07-14T09:46:28.471Z,98688
2018-07-14T09:47:29.801Z,99008
2018-07-14T09:48:31.151Z,98624
2018-07-14T09:49:32.493Z,99008
2018-07-14T09:50:33.838Z,101440
2018-07-14T09:51:35.187Z,102240
2018-07-14T09:52:36.541Z,103008
2018-07-14T09:53:37.877Z,101888
2018-07-14T09:54:39.263Z,100928
2018-07-14T09:55:40.597Z,101856
2018-07-14T09:56:41.946Z,101792
2018-07-14T09:57:43.282Z,102080
2018-07-14T09:58:44.637Z,101568
2018-07-14T09:59:46.017Z,101696
2018-07-14T10:00:47.405Z,101888
2018-07-14T10:01:48.768Z,102912
2018-07-14T10:02:50.145Z,102816
2018-07-14T10:03:51.526Z,101440
2018-07-14T10:04:52.872Z,100352
2018-07-14T10:05:54.227Z,99520
2018-07-14T10:06:55.568Z,98432
2018-07-14T10:07:56.942Z,97568
2018-07-14T10:08:58.302Z,97216
2018-07-14T10:09:59.668Z,96096
2018-07-14T10:11:01.042Z,97088
2018-07-14T10:12:02.444Z,98752
2018-07-14T10:13:03.877Z,101504
2018-07-14T10:14:05.292Z,102848
2018-07-14T10:15:06.721Z,105344
2018-07-14T10:16:08.208Z,105024
2018-07-14T10:17:09.583Z,104512
2018-07-14T10:18:10.981Z,106912
2018-07-14T10:19:12.365Z,106560
2018-07-14T10:20:13.823Z,107040
2018-07-14T10:21:15.257Z,103840
2018-07-14T10:22:16.696Z,105216
2018-07-14T10:23:18.016Z,111552
2018-07-14T10:24:19.380Z,117440
2018-07-14T10:25:20.895Z,116576
2018-07-14T10:26:22.041Z,112416
2018-07-14T10:27:23.393Z,109024
2018-07-14T10:28:24.835Z,107584
2018-07-14T10:29:26.301Z,111488
2018-07-14T10:30:27.740Z,116224
2018-07-14T10:31:29.261Z,115200
2018-07-14T10:32:30.662Z,114848
2018-07-14T10:33:32.186Z,113536
2018-07-14T10:35:13.943Z,112832
2018-07-14T10:36:15.288Z,116384
2018-07-14T10:37:16.737Z,119936
2018-07-14T10:38:18.085Z,119808
2018-07-14T10:39:19.438Z,120352
2018-07-14T10:40:20.817Z,119680
2018-07-14T10:41:22.178Z,119872
2018-07-14T10:42:23.657Z,119616
2018-07-14T10:43:24.899Z,122176
2018-07-14T10:44:26.236Z,123264
2018-07-14T10:45:27.603Z,120160
2018-07-14T10:46:28.967Z,119680
2018-07-14T10:47:30.323Z,118624
2018-07-14T10:48:31.679Z,120640
2018-07-14T10:49:33.046Z,120064
2018-07-14T10:50:34.448Z,118528
2018-07-14T10:51:35.859Z,118112
2018-07-14T10:52:37.287Z,118848
2018-07-14T10:53:38.796Z,120320
2018-07-14T10:54:40.196Z,121248
2018-07-14T10:55:41.540Z,121536
2018-07-14T10:56:42.909Z,120000
2018-07-14T10:57:44.259Z,118944
2018-07-14T10:58:45.617Z,115776
2018-07-14T10:59:46.991Z,114112
2018-07-14T11:00:48.344Z,112576
2018-07-14T11:01:49.702Z,114208
2018-07-14T11:02:51.038Z,115488
2018-07-14T11:03:52.401Z,118464
2018-07-14T11:04:53.742Z,118336
2018-07-14T11:05:55.091Z,118528
2018-07-14T11:06:56.494Z,118144
2018-07-14T11:07:57.881Z,117888
2018-07-14T11:08:59.247Z,118048
2018-07-14T11:10:00.608Z,118144
2018-07-14T11:11:01.948Z,117280
2018-07-14T11:12:03.374Z,118080
2018-07-14T11:13:04.692Z,119392
2018-07-14T11:14:06.037Z,117984
2018-07-14T11:15:07.412Z,116000
2018-07-14T11:16:08.763Z,115744
2018-07-14T11:17:10.117Z,116480
2018-07-14T11:18:11.466Z,116544
2018-07-14T11:19:12.811Z,117920
2018-07-14T11:20:14.159Z,118912
2018-07-14T11:21:15.522Z,119456
2018-07-14T11:22:16.883Z,118944
2018-07-14T11:23:18.239Z,121088
2018-07-14T11:24:19.578Z,122752
2018-07-14T11:25:20.924Z,124544
2018-07-14T11:26:22.277Z,123424
2018-07-14T11:27:23.632Z,121376
2018-07-14T11:28:24.982Z,122592
2018-07-14T11:29:26.350Z,119744
2018-07-14T11:30:27.703Z,119680
2018-07-14T11:31:29.110Z,118752
2018-07-14T11:32:30.485Z,116576
2018-07-14T11:33:31.832Z,116576
2018-07-14T11:34:33.239Z,114272
2018-07-14T11:35:34.527Z,115168
2018-07-14T11:36:35.894Z,117248
2018-07-14T11:37:37.250Z,116352
2018-07-14T11:38:38.589Z,116320
2018-07-14T11:39:39.952Z,114048
2018-07-14T11:40:41.293Z,113952
2018-07-14T11:41:42.670Z,113376
2018-07-14T11:42:44.033Z,114304
2018-07-14T11:43:45.432Z,114464
2018-07-14T11:44:46.792Z,116320
2018-07-14T11:45:48.132Z,115168
2018-07-14T11:46:49.489Z,115552
2018-07-14T11:47:50.904Z,115264
2018-07-14T11:48:52.209Z,116736
2018-07-14T11:49:53.588Z,118144
2018-07-14T11:50:54.935Z,120224
2018-07-14T11:51:56.283Z,120896
2018-07-14T11:52:57.663Z,121312
2018-07-14T11:53:59.009Z,118112
2018-07-14T11:55:00.365Z,111456
2018-07-14T11:56:01.709Z,53344
2018-07-14T11:57:03.052Z,70240
2018-07-14T11:58:04.469Z,116992
2018-07-14T11:59:05.964Z,115904
2018-07-14T12:00:07.464Z,112736
2018-07-14T12:01:08.850Z,113024
2018-07-14T12:02:10.223Z,114464
2018-07-14T12:03:11.574Z,119520
2018-07-14T12:04:12.934Z,120768
2018-07-14T12:05:14.302Z,120288
2018-07-14T12:06:15.679Z,118592
2018-07-14T12:07:17.059Z,116960
2018-07-14T12:08:18.428Z,116384
2018-07-14T12:09:19.825Z,117536
2018-07-14T12:10:21.186Z,118272
2018-07-14T12:11:22.522Z,119520
2018-07-14T12:12:23.883Z,119456
2018-07-14T12:13:25.300Z,118976
2018-07-14T12:14:26.596Z,117184
2018-07-14T12:15:27.939Z,116160
2018-07-14T12:16:29.297Z,117088
2018-07-14T12:17:30.675Z,116320
2018-07-14T12:18:32.049Z,115456
2018-07-14T12:19:33.428Z,113664
2018-07-14T12:20:34.783Z,114080
2018-07-14T12:21:36.356Z,114016
2018-07-14T12:22:37.759Z,115008
2018-07-14T12:23:39.121Z,116416
2018-07-14T12:24:40.465Z,117280
2018-07-14T12:25:41.823Z,118304
2018-07-14T12:26:44.140Z,120416
2018-07-14T12:27:45.454Z,119680
2018-07-14T12:28:47.003Z,117728
2018-07-14T12:29:48.383Z,117792
2018-07-14T12:30:49.692Z,119040
2018-07-14T12:31:51.065Z,118720
2018-07-14T12:32:52.436Z,118240
2018-07-14T12:33:53.786Z,119520
2018-07-14T12:34:55.193Z,120704
2018-07-14T12:35:56.600Z,118816
2018-07-14T12:36:58.010Z,117632
2018-07-14T12:37:59.376Z,118080
2018-07-14T12:39:00.779Z,116896
2018-07-14T12:40:02.140Z,115552
2018-07-14T12:41:03.531Z,113632
2018-07-14T12:42:04.913Z,112736
2018-07-14T12:43:06.291Z,112480
2018-07-14T12:44:07.660Z,114464
2018-07-14T12:45:09.033Z,114752
2018-07-14T12:46:10.413Z,113792
2018-07-14T12:47:11.771Z,112256
2018-07-14T12:48:13.233Z,104960
2018-07-14T12:49:14.609Z,95168
2018-07-14T12:50:16.046Z,89696
2018-07-14T12:51:17.394Z,92800
2018-07-14T12:52:18.915Z,98496
2018-07-14T12:53:20.343Z,102368
2018-07-14T12:54:21.803Z,104448
2018-07-14T12:55:23.274Z,106912
2018-07-14T12:56:24.758Z,109056
2018-07-14T12:57:26.267Z,112064
2018-07-14T12:58:27.730Z,111776
2018-07-14T12:59:29.212Z,112640
2018-07-14T13:00:30.606Z,113728
2018-07-14T13:01:32.048Z,113312
2018-07-14T13:02:33.513Z,114304
2018-07-14T13:03:34.861Z,115648
2018-07-14T13:04:36.230Z,114944
2018-07-14T13:05:37.590Z,114208
2018-07-14T13:06:39.052Z,111680
2018-07-14T13:07:40.335Z,111360
2018-07-14T13:08:41.726Z,110432
2018-07-14T13:09:43.962Z,110656
2018-07-14T13:10:44.430Z,110752
2018-07-14T13:11:45.890Z,108800
2018-07-14T13:12:47.248Z,105760
2018-07-14T13:13:48.618Z,104736
2018-07-14T13:14:49.959Z,104992
2018-07-14T13:15:51.344Z,104928
2018-07-14T13:16:52.699Z,103808
2018-07-14T13:17:54.049Z,102752
2018-07-14T13:18:55.420Z,105216
2018-07-14T13:19:56.784Z,107136
2018-07-14T13:20:58.166Z,109184
2018-07-14T13:21:59.550Z,110240
2018-07-14T13:23:00.897Z,108832
2018-07-14T13:24:02.260Z,107840
2018-07-14T13:25:03.661Z,106848
2018-07-14T13:26:05.005Z,108192
2018-07-14T13:27:06.390Z,108000
2018-07-14T13:28:07.765Z,104160
2018-07-14T13:29:09.128Z,100416
2018-07-14T13:30:10.563Z,101920
2018-07-14T13:31:11.866Z,106496
2018-07-14T13:32:14.251Z,109536
2018-07-14T13:33:15.696Z,107168
2018-07-14T13:34:17.121Z,107968